Time;durP1;ratioP1;P1;durP2;ratioP2;P2;SDS_P1;SDS_P2;PMS_P1;PMS_P2;Temp;Humidity;BMP_temperature;BMP_pressure;BME280_temperature;BME280_humidity;BME280_pressure;Samples;Min_cycle;Max_cycle;Signal;HPM_P1;HPM_P2
2022/01/18 00:02:18;;;;;;;32.47;19.20;;;;;;;2.63;73.66;101149.69;5028500;28;20188;-68
2022/01/18 00:05:59;;;;;;;31.57;18.07;;;;;;;2.00;77.20;101179.47;5029742;28;20915;-68
2022/01/18 00:09:40;;;;;;;32.00;18.07;;;;;;;1.85;77.33;101181.94;5023376;28;20222;-67
2022/01/18 00:17:41;;;;;;;32.10;19.03;;;;;;;3.58;70.52;101167.94;5030820;28;20183;-68
2022/01/18 00:21:37;;;;;;;28.63;17.57;;;;;;;3.11;72.47;101168.09;5023082;28;20183;-68
2022/01/18 00:25:19;;;;;;;33.03;18.83;;;;;;;3.07;72.47;101170.06;5030325;28;20211;-68
2022/01/18 00:29:06;;;;;;;32.77;19.40;;;;;;;3.35;71.35;101168.47;5029639;28;20204;-67
2022/01/18 00:33:12;;;;;;;31.20;19.10;;;;;;;3.23;71.50;101162.94;5030168;28;20180;-68
2022/01/18 00:40:34;;;;;;;29.30;18.27;;;;;;;3.71;70.86;101197.09;5031047;28;20187;-68
2022/01/18 00:44:16;;;;;;;35.20;19.67;;;;;;;3.06;71.67;101157.78;5030293;28;20212;-68
2022/01/18 00:47:57;;;;;;;33.77;18.53;;;;;;;3.37;70.86;101164.81;5029428;28;20188;-67
2022/01/18 00:51:41;;;;;;;31.37;19.03;;;;;;;3.70;69.93;101176.06;5013749;28;20172;-68
2022/01/18 00:55:23;;;;;;;32.27;19.47;;;;;;;3.59;70.69;101189.91;5030129;28;20195;-68
2022/01/18 00:59:04;;;;;;;33.23;18.90;;;;;;;3.60;70.68;101181.06;5029579;28;20429;-68
2022/01/18 01:02:45;;;;;;;33.00;18.33;;;;;;;3.75;70.10;101180.13;5029532;28;20185;-68
2022/01/18 01:06:27;;;;;;;30.53;18.57;;;;;;;3.72;69.86;101167.09;5030913;28;20187;-67
2022/01/18 01:10:08;;;;;;;29.37;18.53;;;;;;;3.82;69.16;101172.69;5029353;28;20204;-68
2022/01/18 01:13:49;;;;;;;33.57;19.97;;;;;;;3.56;69.14;101158.44;5028743;28;20767;-68
2022/01/18 01:34:22;;;;;;;31.43;19.07;;;;;;;3.59;69.89;101158.22;4997936;28;20184;-68
2022/01/18 01:42:03;;;;;;;30.97;17.93;;;;;;;2.66;74.48;101212.75;5028861;28;20184;-68
2022/01/18 01:45:44;;;;;;;30.20;19.17;;;;;;;3.16;72.46;101208.22;5027970;28;20214;-68
2022/01/18 01:49:27;;;;;;;28.90;18.60;;;;;;;3.27;72.44;101194.41;5022089;28;20204;-67
2022/01/18 01:53:08;;;;;;;28.33;18.17;;;;;;;3.87;70.08;101204.94;5024777;28;20864;-66
2022/01/18 01:56:50;;;;;;;30.40;17.83;;;;;;;3.72;69.47;101175.03;5028093;28;20179;-67
2022/01/18 02:00:33;;;;;;;28.03;17.43;;;;;;;3.69;69.87;101177.88;5029369;28;20184;-67
2022/01/18 02:04:14;;;;;;;30.50;19.00;;;;;;;3.60;70.20;101173.13;5021279;28;20215;-67
2022/01/18 02:07:56;;;;;;;29.17;18.50;;;;;;;1.57;77.16;101188.66;5027605;28;20679;-67
2022/01/18 02:11:37;;;;;;;30.00;18.37;;;;;;;1.31;79.01;101197.81;5028125;28;20180;-67
2022/01/18 02:15:19;;;;;;;24.97;16.90;;;;;;;1.07;80.75;101214.81;5025524;28;20176;-67
2022/01/18 02:23:01;;;;;;;26.27;16.30;;;;;;;1.32;80.15;101209.19;5027701;28;20175;-67
2022/01/18 02:26:42;;;;;;;27.87;17.53;;;;;;;1.38;76.49;101161.53;5028485;28;20187;-67
2022/01/18 02:30:23;;;;;;;28.03;18.30;;;;;;;3.18;73.82;101170.25;5028492;28;20176;-67
2022/01/18 02:34:03;;;;;;;26.27;17.27;;;;;;;1.35;78.74;101199.38;5016992;28;20195;-67
2022/01/18 02:37:44;;;;;;;26.33;17.80;;;;;;;2.57;76.63;101189.56;5028604;28;20867;-67
2022/01/18 02:41:29;;;;;;;30.00;19.30;;;;;;;1.65;78.53;101201.44;5028718;28;20184;-67
2022/01/18 02:45:10;;;;;;;28.13;18.13;;;;;;;2.16;76.17;101166.31;5026640;28;20866;-67
2022/01/18 02:48:51;;;;;;;27.37;16.93;;;;;;;3.70;71.71;101163.72;5023010;28;20191;-67
2022/01/18 02:52:31;;;;;;;24.90;17.17;;;;;;;2.34;77.67;101201.34;5027375;28;20841;-67
2022/01/18 02:56:12;;;;;;;26.37;16.67;;;;;;;2.45;76.45;101175.28;5027766;28;20791;-67
2022/01/18 03:00:15;;;;;;;24.30;16.20;;;;;;;3.33;74.30;101178.25;5027231;28;20915;-67
2022/01/18 03:03:56;;;;;;;24.47;17.27;;;;;;;2.33;77.51;101189.13;5014368;28;20756;-67
2022/01/18 03:07:36;;;;;;;27.97;18.13;;;;;;;1.31;79.33;101192.56;5027987;28;20188;-67
2022/01/18 03:11:18;;;;;;;27.10;16.57;;;;;;;2.83;76.50;101186.34;5028174;28;20848;-67
2022/01/18 17:06:13;;;;;;;5.80;4.23;;;;;;;3.67;62.71;101031.94;5116914;27;20509;-67
2022/01/18 17:08:42;;;;;;;7.33;4.20;;;;;;;3.64;63.50;101063.84;5080577;27;20234;-71
2022/01/18 17:11:12;;;;;;;6.47;3.60;;;;;;;3.92;63.00;101059.47;5066226;28;20221;-72
2022/01/18 17:13:39;;;;;;;6.50;4.67;;;;;;;5.50;59.47;101032.28;5098165;28;20225;-67
2022/01/18 17:16:06;;;;;;;6.23;3.80;;;;;;;3.67;63.49;101068.06;5087282;28;20214;-67
2022/01/18 17:18:34;;;;;;;4.23;3.80;;;;;;;4.48;62.55;101073.44;5086872;28;20222;-67
2022/01/18 17:21:03;;;;;;;4.53;3.93;;;;;;;4.41;61.81;101045.75;5084157;28;20219;-67
2022/01/18 17:23:31;;;;;;;5.03;3.97;;;;;;;5.03;60.15;101023.19;5086886;28;20908;-67
2022/01/18 17:25:58;;;;;;;5.37;3.87;;;;;;;4.39;60.98;101025.66;5087744;28;20686;-67
2022/01/18 17:28:25;;;;;;;3.97;3.10;;;;;;;3.93;62.57;101047.97;5087558;28;20222;-68
2022/01/18 17:30:52;;;;;;;5.83;3.30;;;;;;;3.97;64.31;101075.84;5084999;28;20230;-68
2022/01/18 17:33:19;;;;;;;6.37;3.50;;;;;;;4.32;61.09;101012.84;5087475;28;20226;-68
2022/01/18 17:35:47;;;;;;;4.63;3.70;;;;;;;4.45;60.64;100999.69;5087717;28;20215;-68
2022/01/18 17:38:14;;;;;;;4.00;3.60;;;;;;;5.45;59.63;101007.94;5083286;28;20235;-72
2022/01/18 17:40:43;;;;;;;5.47;4.30;;;;;;;5.02;59.71;100989.75;5088843;28;20253;-72
2022/01/18 17:43:13;;;;;;;5.30;4.20;;;;;;;3.98;61.06;101011.56;5086803;28;20464;-71
2022/01/18 17:45:42;;;;;;;4.43;4.03;;;;;;;3.66;62.78;101034.69;5087370;28;20768;-71
2022/01/18 17:48:09;;;;;;;4.27;3.87;;;;;;;3.59;61.74;101010.47;5087364;28;20624;-70
2022/01/18 17:50:35;;;;;;;5.83;4.40;;;;;;;4.93;59.94;101022.97;5080589;28;20220;-70
2022/01/18 17:53:04;;;;;;;5.03;3.90;;;;;;;3.96;62.66;101055.66;5079872;28;20227;-70
2022/01/18 17:55:32;;;;;;;4.17;3.43;;;;;;;4.17;62.27;101066.69;5079455;28;20225;-71
2022/01/18 17:57:59;;;;;;;6.43;4.50;;;;;;;4.65;60.50;101023.94;5079087;28;20227;-72
2022/01/18 18:00:26;;;;;;;8.50;4.90;;;;;;;6.16;56.75;100989.63;5079932;28;20223;-71
2022/01/18 18:02:53;;;;;;;5.97;4.70;;;;;;;4.10;61.91;101047.72;5081202;28;20223;-71
2022/01/18 18:05:22;;;;;;;5.10;3.80;;;;;;;4.20;61.28;101026.88;5073977;28;20210;-71
2022/01/18 18:07:48;;;;;;;6.17;4.50;;;;;;;4.85;59.40;100989.06;5107248;28;20599;-71
2022/01/18 18:10:19;;;;;;;5.20;4.30;;;;;;;4.95;59.95;101012.28;5108847;28;20221;-73
2022/01/18 18:12:48;;;;;;;5.40;4.30;;;;;;;3.36;62.85;100999.56;5106147;28;20220;-69
2022/01/18 18:15:19;;;;;;;6.40;4.17;;;;;;;4.40;60.99;101014.13;5106953;28;20225;-68
2022/01/18 18:17:52;;;;;;;5.80;3.40;;;;;;;5.04;58.71;100969.31;5107884;28;20229;-68
2022/01/18 18:20:23;;;;;;;7.60;4.20;;;;;;;4.32;61.25;100993.53;5108486;28;20217;-70
2022/01/18 18:22:50;;;;;;;4.80;3.97;;;;;;;4.89;60.31;101002.94;5107142;28;20224;-70
2022/01/18 18:25:18;;;;;;;4.77;3.60;;;;;;;4.80;59.78;100983.25;5108015;28;20233;-70
2022/01/18 18:27:46;;;;;;;4.70;3.63;;;;;;;3.97;60.77;100971.09;5107855;28;20225;-71
2022/01/18 18:30:16;;;;;;;4.70;3.93;;;;;;;3.97;62.10;101001.94;5106286;28;20228;-71
2022/01/18 18:32:43;;;;;;;6.93;4.10;;;;;;;4.03;62.14;101009.47;5106704;28;20218;-72
2022/01/18 18:35:11;;;;;;;7.17;4.00;;;;;;;4.22;61.19;101003.00;5108361;28;20234;-68
2022/01/18 18:37:39;;;;;;;6.40;4.53;;;;;;;2.83;63.97;100982.53;5106849;28;20231;-70
2022/01/18 18:40:13;;;;;;;7.27;4.70;;;;;;;3.50;64.20;101038.28;5108086;28;20226;-69
2022/01/18 18:45:35;;;;;;;10.67;6.33;;;;;;;4.70;60.53;100968.97;5102627;28;20229;-71
2022/01/18 18:48:04;;;;;;;5.37;3.50;;;;;;;4.02;62.62;100996.38;5105727;28;20227;-72
2022/01/18 18:50:35;;;;;;;5.03;3.80;;;;;;;3.60;64.00;100998.97;5102872;28;20231;-72
2022/01/18 18:53:05;;;;;;;5.57;4.43;;;;;;;3.63;63.29;100975.03;5098724;28;20222;-72
2022/01/18 18:55:33;;;;;;;5.13;4.20;;;;;;;4.43;61.49;100959.28;5081553;28;20229;-71
2022/01/18 19:00:50;;;;;;;4.23;3.83;;;;;;;2.58;64.78;100952.38;5102497;28;20229;-72
2022/01/18 19:03:24;;;;;;;4.13;3.60;;;;;;;3.52;63.75;100994.19;5080898;28;20237;-73
2022/01/18 19:05:57;;;;;;;4.30;3.50;;;;;;;3.17;64.32;100993.69;5093034;28;20249;-72
2022/01/18 19:08:28;;;;;;;4.53;3.70;;;;;;;2.73;64.66;100998.06;5080461;28;20252;-71
2022/01/18 19:10:59;;;;;;;5.70;4.20;;;;;;;3.71;62.00;100972.78;5073321;28;20675;-71
2022/01/18 19:13:30;;;;;;;5.60;4.13;;;;;;;3.53;62.33;100968.66;5085079;28;20222;-70
2022/01/18 19:16:01;;;;;;;4.60;4.20;;;;;;;2.74;65.78;101006.81;5090032;28;20223;-71
2022/01/18 19:18:29;;;;;;;5.27;3.97;;;;;;;2.15;65.19;100967.19;5064656;28;20226;-69
2022/01/18 19:20:59;;;;;;;5.27;4.13;;;;;;;2.58;64.66;100988.41;5099999;28;20280;-71
2022/01/18 19:23:26;;;;;;;5.20;4.23;;;;;;;2.34;65.10;100995.94;5083882;28;20612;-71
2022/01/18 19:25:57;;;;;;;5.33;4.13;;;;;;;2.89;64.70;101015.59;5082836;28;20219;-70
2022/01/18 19:28:23;;;;;;;5.27;4.27;;;;;;;2.52;64.98;100986.97;5091026;28;20230;-73
2022/01/18 19:30:51;;;;;;;5.07;4.20;;;;;;;2.44;65.27;100990.06;5100485;28;20256;-70
2022/01/18 19:33:24;;;;;;;4.37;3.97;;;;;;;3.44;63.34;100972.72;5086641;28;20219;-70
2022/01/18 19:35:51;;;;;;;5.87;4.17;;;;;;;2.61;64.78;100982.94;5081506;28;20222;-68
2022/01/18 19:38:24;;;;;;;4.20;3.90;;;;;;;3.07;64.18;100998.69;5088487;28;20232;-71
2022/01/18 19:40:51;;;;;;;4.00;3.60;;;;;;;3.74;62.90;100982.28;5089297;28;20234;-71
2022/01/18 19:43:21;;;;;;;4.37;3.90;;;;;;;2.62;63.51;100935.44;5085524;28;20235;-70
2022/01/18 19:45:48;;;;;;;4.53;3.87;;;;;;;2.52;65.67;100986.97;5089758;28;20217;-70
2022/01/18 19:48:15;;;;;;;3.70;3.40;;;;;;;2.27;65.36;100967.31;5105527;28;20226;-69
2022/01/18 19:50:45;;;;;;;4.40;4.00;;;;;;;2.49;64.77;100963.44;5081875;28;20607;-70
2022/01/18 19:53:14;;;;;;;4.73;3.83;;;;;;;2.99;63.38;100929.75;5087520;28;20222;-70
2022/01/18 19:55:47;;;;;;;5.00;4.00;;;;;;;3.14;64.29;100962.25;5078071;28;20235;-70
2022/01/18 19:58:17;;;;;;;4.90;4.10;;;;;;;2.71;64.25;100934.03;5094247;28;20689;-70
2022/01/18 20:00:50;;;;;;;5.77;5.10;;;;;;;2.82;63.84;100920.25;5084633;28;20255;-69
2022/01/18 20:03:17;;;;;;;5.50;3.90;;;;;;;2.45;64.23;100907.47;5082502;28;20237;-71
2022/01/18 20:05:46;;;;;;;4.77;3.53;;;;;;;2.12;65.55;100912.91;5086961;28;20341;-70
2022/01/18 20:08:14;;;;;;;4.07;3.67;;;;;;;2.59;63.95;100917.19;5100198;28;20640;-69
2022/01/18 20:10:44;;;;;;;5.17;3.67;;;;;;;2.21;65.93;100941.38;5084725;28;20227;-70
2022/01/18 20:13:12;;;;;;;5.17;3.63;;;;;;;2.63;64.42;100936.28;5106075;27;20222;-69
2022/01/18 20:15:39;;;;;;;4.53;3.93;;;;;;;1.84;65.51;100908.41;5096891;28;20218;-70
2022/01/18 20:18:06;;;;;;;5.57;4.50;;;;;;;3.04;64.47;100939.06;5087637;28;20230;-70
2022/01/18 20:20:34;;;;;;;4.63;4.23;;;;;;;2.91;63.16;100892.47;5085359;28;20219;-69
2022/01/18 20:23:01;;;;;;;6.53;4.23;;;;;;;2.62;63.88;100914.38;5084766;28;20229;-69
2022/01/18 20:25:32;;;;;;;7.73;5.37;;;;;;;3.41;62.28;100876.16;5078881;28;20214;-70
2022/01/18 20:27:59;;;;;;;6.47;3.80;;;;;;;2.03;65.10;100863.47;5083204;28;20231;-70
2022/01/18 20:30:27;;;;;;;5.50;4.63;;;;;;;2.73;64.75;100899.69;5079588;28;20222;-68
2022/01/18 20:32:55;;;;;;;9.43;5.50;;;;;;;2.63;62.92;100860.75;5096822;28;20223;-70
2022/01/18 20:35:25;;;;;;;6.57;5.00;;;;;;;2.76;64.09;100881.91;5085838;28;20225;-67
2022/01/18 20:38:01;;;;;;;5.57;5.00;;;;;;;2.28;64.60;100858.44;5086414;28;20607;-70
2022/01/18 20:40:30;;;;;;;5.13;4.20;;;;;;;2.02;64.38;100841.56;5078918;28;20240;-69
2022/01/18 20:45:45;;;;;;;4.73;4.20;;;;;;;3.02;63.95;100890.88;5086498;28;20681;-71
2022/01/18 20:48:13;;;;;;;5.70;4.50;;;;;;;3.91;61.06;100852.72;5092232;28;20237;-70
2022/01/18 20:50:46;;;;;;;7.27;4.60;;;;;;;3.97;61.04;100844.34;5090841;28;20750;-71
2022/01/18 20:53:17;;;;;;;9.17;4.80;;;;;;;3.70;61.43;100852.31;5101480;28;20227;-70
2022/01/18 20:55:51;;;;;;;6.37;5.63;;;;;;;3.39;63.51;100890.41;5079604;28;20714;-71
2022/01/18 20:58:19;;;;;;;6.73;5.40;;;;;;;3.48;60.54;100807.19;5099878;28;20228;-71
2022/01/18 21:00:47;;;;;;;6.60;5.37;;;;;;;3.75;60.72;100829.09;5081656;28;20718;-71
2022/01/18 21:03:14;;;;;;;7.97;6.83;;;;;;;4.09;60.67;100840.06;5098307;28;20682;-69
2022/01/18 21:05:42;;;;;;;9.23;7.47;;;;;;;3.58;60.72;100790.63;5092543;28;20245;-71
2022/01/18 21:08:09;;;;;;;7.13;6.20;;;;;;;3.87;60.77;100806.31;5082221;28;20234;-72
2022/01/18 21:10:37;;;;;;;8.20;4.90;;;;;;;2.97;63.34;100840.22;5099350;28;20236;-70
2022/01/18 21:13:10;;;;;;;5.37;4.73;;;;;;;3.32;62.76;100823.13;5081754;28;20233;-69
2022/01/18 21:15:38;;;;;;;5.10;4.60;;;;;;;2.69;64.02;100801.56;5088830;28;20225;-69
2022/01/18 21:18:05;;;;;;;4.87;4.43;;;;;;;2.34;65.25;100799.28;5093656;28;20251;-68
2022/01/18 21:20:34;;;;;;;8.67;5.03;;;;;;;2.43;64.55;100800.53;5090362;28;20229;-70
2022/01/18 21:23:02;;;;;;;7.10;5.10;;;;;;;2.25;65.23;100800.69;5080263;28;20299;-69
2022/01/18 21:25:35;;;;;;;8.37;4.90;;;;;;;1.80;66.39;100786.69;5081101;28;20229;-69
2022/01/18 21:28:03;;;;;;;6.70;5.17;;;;;;;1.61;66.07;100775.56;5081903;28;20677;-71
2022/01/18 21:30:30;;;;;;;7.33;5.47;;;;;;;2.55;64.79;100812.97;5080515;28;20218;-68
2022/01/18 21:32:59;;;;;;;6.87;5.57;;;;;;;2.74;63.89;100801.28;5087362;28;21818;-69
2022/01/18 21:35:26;;;;;;;6.50;5.53;;;;;;;2.54;65.04;100828.84;5105347;28;20236;-73
2022/01/18 21:37:54;;;;;;;8.67;5.83;;;;;;;2.31;65.33;100834.56;5107988;28;20242;-72
2022/01/18 21:40:21;;;;;;;5.73;5.13;;;;;;;2.77;63.49;100819.53;5104503;27;20524;-73
2022/01/18 21:42:48;;;;;;;7.40;6.13;;;;;;;2.41;64.47;100824.34;5102027;28;20544;-73
2022/01/18 21:45:15;;;;;;;6.60;5.60;;;;;;;3.32;62.75;100831.91;5091183;28;20236;-72
2022/01/18 21:47:42;;;;;;;6.40;5.30;;;;;;;2.55;63.26;100812.97;5101780;27;20237;-72
2022/01/18 21:50:13;;;;;;;7.37;5.60;;;;;;;2.42;64.12;100831.28;5107064;28;20247;-72
2022/01/18 21:52:41;;;;;;;7.80;5.63;;;;;;;2.97;64.00;100850.78;5101545;28;20213;-72
2022/01/18 21:55:09;;;;;;;10.47;6.07;;;;;;;1.79;65.32;100798.16;5091478;28;20230;-73
2022/01/18 21:57:36;;;;;;;7.53;6.03;;;;;;;2.81;63.75;100828.94;5107186;28;20229;-73
2022/01/18 22:00:06;;;;;;;7.70;6.87;;;;;;;3.44;61.02;100772.25;5105703;28;20228;-67
2022/01/18 22:02:33;;;;;;;8.47;5.90;;;;;;;4.16;60.50;100799.09;5102442;28;20228;-66
2022/01/18 22:05:03;;;;;;;8.50;6.13;;;;;;;4.62;59.03;100773.06;5104504;28;20596;-67
2022/01/18 22:07:38;;;;;;;7.60;5.80;;;;;;;4.88;58.40;100766.78;5102492;28;20237;-66
2022/01/18 22:10:07;;;;;;;7.47;6.63;;;;;;;4.15;59.40;100776.28;5104380;28;20583;-66
2022/01/18 22:12:36;;;;;;;8.67;6.37;;;;;;;4.41;58.87;100773.63;5105877;28;20721;-66
2022/01/18 22:15:05;;;;;;;6.53;5.90;;;;;;;2.61;64.73;100833.66;5103962;28;20646;-67
2022/01/18 22:17:32;;;;;;;8.93;6.73;;;;;;;2.47;65.42;100857.34;5104342;28;20222;-67
2022/01/18 22:19:59;;;;;;;6.93;5.83;;;;;;;2.44;64.82;100837.31;5101284;28;20443;-66
2022/01/18 22:22:26;;;;;;;8.77;6.00;;;;;;;2.10;65.54;100828.78;5106511;28;20218;-66
2022/01/18 22:24:53;;;;;;;6.93;5.80;;;;;;;2.02;66.27;100833.66;5100128;28;20232;-66
2022/01/18 22:27:20;;;;;;;9.47;6.77;;;;;;;3.06;64.12;100837.00;5105311;28;20226;-67
2022/01/18 22:29:47;;;;;;;9.37;6.63;;;;;;;2.93;64.34;100829.97;5100322;28;20225;-66
2022/01/18 22:32:14;;;;;;;8.40;6.17;;;;;;;2.13;65.99;100817.22;5101964;28;20222;-66
2022/01/18 22:34:41;;;;;;;8.77;6.80;;;;;;;2.18;64.79;100794.13;5103110;28;20230;-67
2022/01/18 22:37:08;;;;;;;8.07;6.80;;;;;;;3.86;62.03;100786.19;5105796;28;20232;-66
2022/01/18 22:39:35;;;;;;;7.53;6.37;;;;;;;2.49;64.76;100815.94;5105867;28;20228;-66
2022/01/18 22:42:04;;;;;;;8.17;6.23;;;;;;;2.40;64.99;100812.09;5104279;28;20225;-67
2022/01/18 22:44:32;;;;;;;8.07;6.13;;;;;;;2.33;63.25;100783.63;5086325;28;20220;-67
2022/01/18 22:47:03;;;;;;;7.77;6.77;;;;;;;3.18;62.00;100787.06;5104681;28;20226;-66
2022/01/18 22:49:32;;;;;;;9.17;6.53;;;;;;;1.89;65.85;100801.13;5105312;28;20225;-67
2022/01/18 22:52:00;;;;;;;8.07;6.27;;;;;;;2.21;64.46;100787.84;5102989;28;20240;-66
2022/01/18 22:54:28;;;;;;;8.70;6.23;;;;;;;2.82;64.45;100815.66;5094789;28;20218;-66
2022/01/18 22:56:55;;;;;;;7.70;6.87;;;;;;;1.80;65.47;100783.22;5101550;28;20228;-66
2022/01/18 22:59:24;;;;;;;7.70;6.40;;;;;;;2.80;64.44;100814.09;5105415;28;20743;-66
2022/01/18 23:01:52;;;;;;;9.03;7.47;;;;;;;3.30;62.26;100783.63;5097805;28;20218;-66
2022/01/18 23:04:19;;;;;;;8.73;6.70;;;;;;;2.21;65.50;100811.53;5086818;28;20256;-66
2022/01/18 23:06:46;;;;;;;9.20;6.03;;;;;;;3.72;61.76;100776.53;5100861;28;20224;-66
2022/01/18 23:09:14;;;;;;;8.87;5.67;;;;;;;2.30;64.12;100789.91;5105314;28;20225;-67
2022/01/18 23:11:41;;;;;;;9.20;6.17;;;;;;;0.93;67.70;100798.56;5100779;28;20236;-66
2022/01/18 23:14:11;;;;;;;8.37;6.53;;;;;;;2.54;64.13;100798.06;5098798;28;20708;-67
2022/01/18 23:16:38;;;;;;;9.47;6.47;;;;;;;1.63;66.37;100818.41;5099872;28;20221;-66
2022/01/18 23:19:05;;;;;;;8.37;6.67;;;;;;;1.79;65.00;100794.69;5103561;28;20232;-67
2022/01/18 23:21:32;;;;;;;9.50;6.90;;;;;;;3.91;61.70;100770.00;5100995;28;20633;-67
2022/01/18 23:23:59;;;;;;;7.17;6.13;;;;;;;2.47;62.15;100758.09;5104403;28;20231;-66
2022/01/18 23:26:26;;;;;;;11.10;6.73;;;;;;;2.98;63.47;100805.03;5098090;28;20610;-66
2022/01/18 23:28:53;;;;;;;7.87;5.67;;;;;;;3.05;62.49;100798.41;5104522;28;20232;-66
2022/01/18 23:31:21;;;;;;;7.97;5.90;;;;;;;2.43;63.78;100813.72;5099581;28;20233;-67
2022/01/18 23:33:48;;;;;;;7.53;6.17;;;;;;;1.60;65.35;100802.78;5095587;28;20221;-66
2022/01/18 23:36:22;;;;;;;9.17;6.53;;;;;;;1.45;65.90;100802.75;5097603;28;20548;-66
2022/01/18 23:38:49;;;;;;;8.63;7.00;;;;;;;3.71;61.52;100789.81;5099040;28;20229;-66
2022/01/18 23:41:34;;;;;;;9.57;7.73;;;;;;;4.47;58.69;100723.00;5105168;28;20221;-67
2022/01/18 23:44:05;;;;;;;11.63;8.53;;;;;;;4.27;57.93;100707.72;5101699;28;20222;-67
2022/01/18 23:46:33;;;;;;;9.93;6.53;;;;;;;4.21;59.09;100739.81;5100230;28;20232;-66
2022/01/18 23:49:01;;;;;;;10.00;7.47;;;;;;;1.70;65.38;100806.56;5099590;28;20236;-67
2022/01/18 23:51:28;;;;;;;11.70;6.63;;;;;;;1.19;65.62;100783.97;5100606;28;20222;-66
2022/01/18 23:53:56;;;;;;;9.60;7.50;;;;;;;2.80;62.13;100783.31;5100834;28;20221;-66
2022/01/18 23:56:24;;;;;;;11.97;7.53;;;;;;;3.38;59.94;100756.81;5101644;28;20222;-66
2022/01/18 23:58:52;;;;;;;10.23;7.30;;;;;;;3.08;61.48;100799.16;5100478;28;20247;-66
